createdAt,value
2017-06-22T12:29:17.044Z,193
2017-06-22T12:29:34.672Z,184
2017-06-22T12:29:51.302Z,158
2017-06-22T12:30:02.169Z,187
2017-06-22T12:30:25.555Z,176
2017-06-22T12:30:36.327Z,186
2017-06-22T12:30:58.675Z,178
2017-06-22T12:31:18.193Z,194
2017-06-22T12:31:29.217Z,183
2017-06-22T12:31:46.078Z,199
2017-06-22T12:32:02.913Z,206
2017-06-22T12:32:19.858Z,196
2017-06-22T12:32:33.696Z,195
2017-06-22T12:32:53.349Z,193
2017-06-22T12:33:07.290Z,216
2017-06-22T12:33:20.952Z,202
2017-06-22T12:33:40.674Z,179
2017-06-22T12:33:54.569Z,194
2017-06-22T12:34:08.518Z,198
2017-06-22T12:34:25.721Z,187
2017-06-22T12:34:39.825Z,212
2017-06-22T12:34:53.946Z,222
2017-06-22T12:35:14.452Z,209
2017-06-22T12:35:31.290Z,211
2017-06-22T12:35:52.125Z,182
2017-06-22T12:36:06.080Z,183
2017-06-22T12:36:23.968Z,155
2017-06-22T12:36:43.906Z,196
2017-06-22T12:36:55.229Z,200
2017-06-22T12:37:12.125Z,202
2017-06-22T12:37:26.223Z,208
2017-06-22T12:37:40.119Z,207
2017-06-22T12:37:59.730Z,187
2017-06-22T12:38:13.552Z,205
2017-06-22T12:38:30.356Z,208
2017-06-22T12:38:47.190Z,231
2017-06-22T12:39:06.847Z,217
2017-06-22T12:39:20.739Z,209
2017-06-22T12:39:34.662Z,191
2017-06-22T12:39:45.559Z,222
2017-06-22T12:39:56.681Z,171
2017-06-22T12:40:10.590Z,235
2017-06-22T12:40:30.273Z,200
2017-06-22T12:40:41.333Z,185
2017-06-22T12:40:55.341Z,199
2017-06-22T12:41:12.203Z,211
2017-06-22T12:41:26.352Z,194
2017-06-22T12:41:46.999Z,210
2017-06-22T12:41:58.715Z,223
2017-06-22T12:42:18.535Z,215
2017-06-22T12:42:32.457Z,226
2017-06-22T12:42:46.480Z,236
2017-06-22T12:43:00.437Z,247
2017-06-22T12:43:20.448Z,217
2017-06-22T12:43:34.473Z,197
2017-06-22T12:43:48.450Z,216
2017-06-22T12:43:59.494Z,248
2017-06-22T12:44:13.448Z,222
2017-06-22T12:44:27.299Z,202
2017-06-22T12:44:41.016Z,212
2017-06-22T12:44:57.623Z,213
2017-06-22T12:45:11.089Z,216
2017-06-22T12:45:24.883Z,217
2017-06-22T12:45:41.506Z,209
2017-06-22T12:45:58.005Z,204
2017-06-22T12:46:15.654Z,211
2017-06-22T12:46:29.375Z,226
2017-06-22T12:46:43.046Z,231
2017-06-22T12:46:56.631Z,230
2017-06-22T12:47:13.293Z,222
2017-06-22T12:47:32.737Z,203
2017-06-22T12:47:44.645Z,199
2017-06-22T12:47:55.467Z,240
2017-06-22T12:48:12.103Z,243
2017-06-22T12:48:25.881Z,201
2017-06-22T12:48:36.488Z,209
2017-06-22T12:48:56.042Z,224
2017-06-22T12:49:06.921Z,238
2017-06-22T12:49:20.734Z,227
2017-06-22T12:49:34.739Z,231
2017-06-22T12:49:48.485Z,227
2017-06-22T12:49:59.488Z,211
2017-06-22T12:50:10.339Z,219
2017-06-22T12:50:24.152Z,239
2017-06-22T12:50:37.952Z,221
2017-06-22T12:50:54.553Z,233
2017-06-22T12:51:14.109Z,247
2017-06-22T12:51:27.915Z,233
2017-06-22T12:51:44.445Z,233
2017-06-22T12:52:01.232Z,218
2017-06-22T12:52:11.988Z,247
2017-06-22T12:52:28.687Z,241
2017-06-22T12:52:45.241Z,240
2017-06-22T12:53:04.833Z,221
2017-06-22T12:53:21.598Z,223
2017-06-22T12:53:35.417Z,195
2017-06-22T12:53:49.003Z,203
2017-06-22T12:54:02.767Z,221
2017-06-22T12:54:13.613Z,257
2017-06-22T12:54:24.610Z,240
2017-06-22T12:54:38.420Z,231
2017-06-22T12:54:52.169Z,217
2017-06-22T12:55:03.081Z,240
2017-06-22T12:55:16.903Z,266
2017-06-22T12:55:30.551Z,225
2017-06-22T12:55:44.490Z,254
2017-06-22T12:56:01.238Z,245
2017-06-22T12:56:20.756Z,218
2017-06-22T12:56:40.208Z,244
2017-06-22T12:56:56.919Z,246
2017-06-22T12:57:08.096Z,227
2017-06-22T12:57:22.024Z,256
2017-06-22T12:57:35.887Z,262
2017-06-22T12:57:46.851Z,248
2017-06-22T12:58:03.546Z,253
2017-06-22T12:58:23.102Z,185
2017-06-22T12:58:39.803Z,231
2017-06-22T12:58:50.751Z,260
2017-06-22T12:59:04.636Z,258
2017-06-22T12:59:15.543Z,239
2017-06-22T12:59:32.439Z,260
2017-06-22T12:59:46.284Z,238
2017-06-22T13:00:02.940Z,252
2017-06-22T13:00:19.593Z,240
2017-06-22T13:00:39.153Z,254
2017-06-22T13:00:52.974Z,232
2017-06-22T13:01:10.423Z,247
2017-06-22T13:01:26.834Z,246
2017-06-22T13:01:40.736Z,245
2017-06-22T13:02:00.342Z,243
2017-06-22T13:02:14.255Z,241
2017-06-22T13:02:33.816Z,240
2017-06-22T13:02:44.712Z,245
2017-06-22T13:02:58.445Z,260
2017-06-22T13:03:12.110Z,233
2017-06-22T13:03:28.766Z,265
2017-06-22T13:03:42.733Z,243
2017-06-22T13:03:56.442Z,247
2017-06-22T13:04:10.230Z,224
2017-06-22T13:04:23.872Z,218
2017-06-22T13:04:37.387Z,249
2017-06-22T13:04:54.032Z,245
2017-06-22T13:05:07.894Z,271
2017-06-22T13:05:27.413Z,255
2017-06-22T13:05:38.323Z,244
2017-06-22T13:05:55.017Z,301
2017-06-22T13:06:11.776Z,259
2017-06-22T13:06:31.391Z,253
2017-06-22T13:06:42.290Z,273
2017-06-22T13:06:58.925Z,248
2017-06-22T13:07:12.759Z,263
2017-06-22T13:07:29.423Z,255
2017-06-22T13:07:46.146Z,243
2017-06-22T13:07:56.944Z,243
2017-06-22T13:08:13.626Z,252
2017-06-22T13:08:24.575Z,250
2017-06-22T13:08:38.497Z,280
2017-06-22T13:08:55.262Z,258
2017-06-22T13:09:11.814Z,253
2017-06-22T13:09:25.869Z,259
2017-06-22T13:09:39.681Z,248
2017-06-22T13:09:50.607Z,254
2017-06-22T13:10:16.046Z,253
2017-06-22T13:10:29.806Z,247
2017-06-22T13:10:43.625Z,254
2017-06-22T13:11:01.213Z,263
2017-06-22T13:11:15.132Z,246
2017-06-22T13:11:30.071Z,258
2017-06-22T13:11:44.349Z,260
2017-06-22T13:12:07.272Z,257
2017-06-22T13:12:24.473Z,242
2017-06-22T13:12:38.329Z,268
2017-06-22T13:12:49.381Z,222
2017-06-22T13:13:06.162Z,256
2017-06-22T13:13:22.913Z,254
2017-06-22T13:13:42.612Z,280
2017-06-22T13:13:57.079Z,235
2017-06-22T13:14:13.802Z,257
2017-06-22T13:14:30.507Z,280
2017-06-22T13:14:41.452Z,286
2017-06-22T13:14:55.266Z,256
2017-06-22T13:15:09.018Z,246
2017-06-22T13:15:23.032Z,252
2017-06-22T13:15:36.887Z,250
2017-06-22T13:15:59.511Z,230
2017-06-22T13:16:13.458Z,256
2017-06-22T13:16:27.427Z,252
2017-06-22T13:16:44.286Z,268
2017-06-22T13:16:58.111Z,247
2017-06-22T13:17:11.973Z,248
2017-06-22T13:17:29.655Z,260
2017-06-22T13:17:41.042Z,264
2017-06-22T13:17:54.919Z,259
2017-06-22T13:18:08.907Z,251
2017-06-22T13:18:23.399Z,275
2017-06-22T13:18:34.916Z,275
2017-06-22T13:18:49.850Z,260
2017-06-22T13:19:00.952Z,263
2017-06-22T13:19:14.825Z,276
2017-06-22T13:19:25.805Z,274
2017-06-22T13:19:42.544Z,249
2017-06-22T13:20:06.127Z,254
2017-06-22T13:20:20.201Z,273
2017-06-22T13:20:39.794Z,256
2017-06-22T13:20:53.900Z,277
2017-06-22T13:21:10.487Z,247
2017-06-22T13:21:21.456Z,249
2017-06-22T13:21:35.478Z,266
2017-06-22T13:21:49.326Z,289
2017-06-22T13:22:00.188Z,276
2017-06-22T13:22:14.023Z,265
2017-06-22T13:22:30.782Z,279
2017-06-22T13:22:44.500Z,260
2017-06-22T13:22:55.344Z,286
2017-06-22T13:23:09.127Z,256
2017-06-22T13:23:28.817Z,269
2017-06-22T13:23:48.207Z,276
2017-06-22T13:23:59.160Z,253
2017-06-22T13:24:13.007Z,267
2017-06-22T13:24:23.933Z,277
2017-06-22T13:24:38.020Z,324
2017-06-22T13:24:51.922Z,257
2017-06-22T13:25:03.098Z,256
2017-06-22T13:25:16.795Z,236
2017-06-22T13:25:30.756Z,279
2017-06-22T13:25:48.380Z,319
2017-06-22T13:26:05.350Z,292
2017-06-22T13:26:19.327Z,256
2017-06-22T13:26:37.084Z,278
2017-06-22T13:26:53.826Z,285
2017-06-22T13:27:07.856Z,269
2017-06-22T13:27:19.024Z,278
2017-06-22T13:27:35.805Z,301
2017-06-22T13:27:49.625Z,252
2017-06-22T13:28:09.283Z,289
2017-06-22T13:28:26.466Z,289
2017-06-22T13:28:43.516Z,267
2017-06-22T13:29:06.255Z,282
2017-06-22T13:29:23.100Z,281
2017-06-22T13:29:36.779Z,235
2017-06-22T13:29:51.114Z,295
2017-06-22T13:30:04.947Z,301
2017-06-22T13:30:18.741Z,285
2017-06-22T13:30:35.179Z,320
2017-06-22T13:30:57.511Z,261
2017-06-22T13:31:11.304Z,295
2017-06-22T13:31:28.031Z,281
2017-06-22T13:31:44.779Z,268
2017-06-22T13:31:58.536Z,299
2017-06-22T13:32:15.237Z,261
2017-06-22T13:32:40.615Z,215
2017-06-22T13:32:54.469Z,287
2017-06-22T13:33:08.316Z,289
2017-06-22T13:33:25.045Z,283
2017-06-22T13:33:41.917Z,271
2017-06-22T13:33:58.788Z,275
2017-06-22T13:34:18.418Z,279
2017-06-22T13:34:35.189Z,275
2017-06-22T13:34:54.992Z,285
2017-06-22T13:35:11.707Z,267
2017-06-22T13:35:31.471Z,265
2017-06-22T13:35:45.637Z,298
2017-06-22T13:35:59.532Z,287
2017-06-22T13:36:16.315Z,291
2017-06-22T13:36:30.664Z,273
2017-06-22T13:36:44.723Z,262
2017-06-22T13:37:01.570Z,295
2017-06-22T13:37:15.439Z,287
2017-06-22T13:37:32.114Z,307
2017-06-22T13:37:43.963Z,276
2017-06-22T13:37:57.808Z,296
2017-06-22T13:38:14.524Z,282
2017-06-22T13:38:28.321Z,294
2017-06-22T13:38:44.945Z,278
2017-06-22T13:38:55.850Z,289
2017-06-22T13:39:09.656Z,269
2017-06-22T13:39:20.540Z,295
2017-06-22T13:39:34.304Z,291
2017-06-22T13:39:53.753Z,288
2017-06-22T13:40:10.443Z,292
2017-06-22T13:40:27.199Z,302
2017-06-22T13:40:43.812Z,274
2017-06-22T13:40:57.625Z,289
2017-06-22T13:41:14.330Z,304
2017-06-22T13:41:28.194Z,298
2017-06-22T13:41:42.017Z,312
2017-06-22T13:41:52.892Z,279
2017-06-22T13:42:06.632Z,284
2017-06-22T13:42:20.456Z,299
2017-06-22T13:42:37.201Z,294
2017-06-22T13:42:48.309Z,292
2017-06-22T13:43:02.257Z,260
2017-06-22T13:43:13.764Z,279
2017-06-22T13:43:27.640Z,284
2017-06-22T13:43:41.472Z,298
2017-06-22T13:43:55.288Z,298
2017-06-22T13:44:09.086Z,324
2017-06-22T13:44:23.001Z,265
2017-06-22T13:44:39.763Z,287
2017-06-22T13:44:50.653Z,275
2017-06-22T13:45:01.602Z,298
2017-06-22T13:45:20.974Z,283
2017-06-22T13:45:34.729Z,254
2017-06-22T13:45:45.523Z,304
2017-06-22T13:46:05.075Z,281
2017-06-22T13:46:21.754Z,281
2017-06-22T13:46:35.537Z,291
2017-06-22T13:46:56.130Z,275
2017-06-22T13:47:15.713Z,276
2017-06-22T13:47:26.669Z,285
2017-06-22T13:47:46.333Z,316
2017-06-22T13:48:04.174Z,296
2017-06-22T13:48:15.111Z,305
2017-06-22T13:48:25.663Z,294
2017-06-22T13:48:43.260Z,326
2017-06-22T13:49:03.608Z,289
2017-06-22T13:49:23.145Z,238
2017-06-22T13:49:39.862Z,275
2017-06-22T13:49:50.851Z,291
2017-06-22T13:50:04.787Z,298
2017-06-22T13:50:21.454Z,332
2017-06-22T13:50:38.136Z,287
2017-06-22T13:50:52.673Z,298
2017-06-22T13:51:07.889Z,286
2017-06-22T13:51:27.420Z,288
2017-06-22T13:51:38.492Z,279
2017-06-22T13:51:49.386Z,303
2017-06-22T13:52:00.189Z,276
2017-06-22T13:52:19.745Z,282
2017-06-22T13:52:33.377Z,272
2017-06-22T13:52:50.531Z,280
2017-06-22T13:53:01.424Z,282
2017-06-22T13:53:15.295Z,271
2017-06-22T13:53:26.324Z,294
2017-06-22T13:53:43.041Z,274
2017-06-22T13:53:56.850Z,298
2017-06-22T13:54:10.472Z,320
2017-06-22T13:54:24.305Z,322
2017-06-22T13:54:41.018Z,295
2017-06-22T13:54:54.630Z,293
2017-06-22T13:55:14.139Z,282
2017-06-22T13:55:30.763Z,288
2017-06-22T13:55:41.675Z,279
2017-06-22T13:55:55.463Z,306
2017-06-22T13:56:09.348Z,294
2017-06-22T13:56:23.114Z,268
2017-06-22T13:56:39.757Z,315
2017-06-22T13:56:56.304Z,282
2017-06-22T13:57:10.116Z,323
2017-06-22T13:57:21.448Z,290
2017-06-22T13:57:35.167Z,284
2017-06-22T13:57:48.957Z,290
2017-06-22T13:58:03.305Z,299
2017-06-22T13:58:14.238Z,296
2017-06-22T13:58:25.059Z,257
2017-06-22T13:58:35.930Z,296
2017-06-22T13:58:50.581Z,281
2017-06-22T13:59:04.258Z,299
2017-06-22T13:59:15.056Z,277
2017-06-22T13:59:28.876Z,290
2017-06-22T13:59:39.650Z,300
2017-06-22T13:59:57.213Z,267
2017-06-22T14:00:19.645Z,302
2017-06-22T14:00:33.470Z,304
2017-06-22T14:00:47.257Z,302
2017-06-22T14:01:00.927Z,302
2017-06-22T14:01:14.759Z,309
2017-06-22T14:01:28.485Z,303
2017-06-22T14:01:42.298Z,302
2017-06-22T14:01:58.992Z,312
2017-06-22T14:02:15.551Z,307
2017-06-22T14:02:32.285Z,299
2017-06-22T14:02:52.800Z,283
2017-06-22T14:03:06.562Z,295
2017-06-22T14:03:17.558Z,282
2017-06-22T14:03:34.251Z,277
2017-06-22T14:03:47.945Z,305
2017-06-22T14:03:58.901Z,336
2017-06-22T14:04:09.898Z,291
2017-06-22T14:04:20.819Z,375
2017-06-22T14:04:31.725Z,288
2017-06-22T14:04:51.263Z,358
2017-06-22T14:05:05.028Z,294
2017-06-22T14:05:15.974Z,286
2017-06-22T14:05:29.689Z,318
2017-06-22T14:05:43.536Z,288
2017-06-22T14:05:54.435Z,294
2017-06-22T14:06:08.253Z,291
2017-06-22T14:06:19.061Z,310
2017-06-22T14:06:29.860Z,281
2017-06-22T14:06:40.806Z,310
2017-06-22T14:06:52.287Z,301
2017-06-22T14:07:08.771Z,300
2017-06-22T14:07:22.573Z,269
2017-06-22T14:07:36.407Z,322
2017-06-22T14:07:50.171Z,262
2017-06-22T14:08:03.987Z,285
2017-06-22T14:08:14.859Z,377
2017-06-22T14:08:28.581Z,311
2017-06-22T14:08:45.301Z,339
2017-06-22T14:08:59.101Z,280
2017-06-22T14:09:12.883Z,301
2017-06-22T14:09:23.698Z,286
2017-06-22T14:09:40.319Z,311
2017-06-22T14:09:56.857Z,300
2017-06-22T14:10:07.931Z,292
2017-06-22T14:10:18.725Z,300
2017-06-22T14:10:33.390Z,301
2017-06-22T14:10:47.206Z,315
2017-06-22T14:11:00.992Z,313
2017-06-22T14:11:15.689Z,335
2017-06-22T14:11:26.593Z,273
2017-06-22T14:11:40.434Z,280
2017-06-22T14:11:57.126Z,315
2017-06-22T14:12:13.791Z,290
2017-06-22T14:12:30.404Z,296
2017-06-22T14:12:44.202Z,318
2017-06-22T14:12:57.972Z,289
2017-06-22T14:13:08.883Z,278
2017-06-22T14:13:23.257Z,305
2017-06-22T14:13:34.222Z,309
2017-06-22T14:13:51.908Z,329
2017-06-22T14:14:05.545Z,298
2017-06-22T14:14:19.325Z,313
2017-06-22T14:14:33.157Z,302
2017-06-22T14:14:49.903Z,309
2017-06-22T14:15:04.705Z,312
2017-06-22T14:15:15.740Z,318
2017-06-22T14:15:32.431Z,311
2017-06-22T14:15:46.216Z,322
2017-06-22T14:15:57.132Z,332
2017-06-22T14:16:10.647Z,310
2017-06-22T14:16:30.283Z,340
2017-06-22T14:16:41.676Z,320
2017-06-22T14:16:52.469Z,316
2017-06-22T14:17:06.633Z,299
2017-06-22T14:17:20.593Z,310
2017-06-22T14:17:38.184Z,309
2017-06-22T14:17:52.848Z,301
2017-06-22T14:18:03.911Z,316
2017-06-22T14:18:17.728Z,280
2017-06-22T14:18:31.534Z,336
2017-06-22T14:18:45.317Z,305
2017-06-22T14:18:57.818Z,329
2017-06-22T14:19:08.701Z,300
2017-06-22T14:19:22.448Z,301
2017-06-22T14:19:36.283Z,318
2017-06-22T14:19:47.155Z,323
2017-06-22T14:20:00.945Z,307
2017-06-22T14:20:14.744Z,310
2017-06-22T14:20:25.769Z,293
2017-06-22T14:20:36.654Z,322
2017-06-22T14:20:50.410Z,239
2017-06-22T14:21:09.643Z,330
2017-06-22T14:21:23.407Z,343
2017-06-22T14:21:39.965Z,309
2017-06-22T14:21:56.609Z,311
2017-06-22T14:22:10.400Z,280
2017-06-22T14:22:24.026Z,297
2017-06-22T14:22:41.249Z,334
2017-06-22T14:22:57.899Z,300
2017-06-22T14:23:11.740Z,349
2017-06-22T14:23:22.606Z,311
2017-06-22T14:23:36.167Z,305
2017-06-22T14:23:52.719Z,292
2017-06-22T14:24:03.568Z,308
2017-06-22T14:24:14.483Z,328
2017-06-22T14:24:28.348Z,319
2017-06-22T14:24:41.964Z,297
2017-06-22T14:24:55.697Z,275
2017-06-22T14:25:06.489Z,340
2017-06-22T14:25:23.018Z,311
2017-06-22T14:25:39.737Z,325
2017-06-22T14:25:56.225Z,306
2017-06-22T14:26:15.734Z,316
2017-06-22T14:26:26.655Z,365
2017-06-22T14:26:40.466Z,345
2017-06-22T14:26:54.289Z,316
2017-06-22T14:27:08.145Z,316
2017-06-22T14:27:24.816Z,315
2017-06-22T14:27:35.788Z,339
2017-06-22T14:27:52.307Z,356
2017-06-22T14:28:09.378Z,333
2017-06-22T14:28:23.174Z,299
2017-06-22T14:28:42.783Z,310
2017-06-22T14:28:54.121Z,296
2017-06-22T14:29:04.765Z,281
2017-06-22T14:29:15.552Z,315
2017-06-22T14:29:29.362Z,300
2017-06-22T14:29:43.090Z,239
2017-06-22T14:29:56.893Z,319
2017-06-22T14:30:10.583Z,318
2017-06-22T14:30:27.318Z,357
2017-06-22T14:30:43.848Z,296
2017-06-22T14:30:57.655Z,275
2017-06-22T14:31:11.491Z,325
2017-06-22T14:31:25.229Z,334
2017-06-22T14:31:39.068Z,340
2017-06-22T14:31:52.732Z,327
2017-06-22T14:32:03.597Z,325
2017-06-22T14:32:23.187Z,318
2017-06-22T14:32:34.075Z,319
2017-06-22T14:32:47.756Z,313
2017-06-22T14:33:02.461Z,338
2017-06-22T14:33:16.735Z,315
2017-06-22T14:33:31.100Z,300
2017-06-22T14:33:50.648Z,310
2017-06-22T14:34:07.403Z,336
2017-06-22T14:34:24.832Z,320
2017-06-22T14:34:38.673Z,315
2017-06-22T14:34:52.396Z,312
2017-06-22T14:35:06.222Z,338
2017-06-22T14:35:17.112Z,305
2017-06-22T14:35:27.981Z,310
2017-06-22T14:35:45.030Z,302
2017-06-22T14:35:58.679Z,323
2017-06-22T14:36:12.829Z,338
2017-06-22T14:36:31.156Z,327
2017-06-22T14:36:41.870Z,318
2017-06-22T14:36:52.674Z,332
2017-06-22T14:37:12.125Z,309
2017-06-22T14:37:26.240Z,320
2017-06-22T14:37:39.941Z,331
2017-06-22T14:37:50.745Z,315
2017-06-22T14:38:04.572Z,313
2017-06-22T14:38:15.671Z,301
2017-06-22T14:38:32.219Z,329
2017-06-22T14:38:45.864Z,322
2017-06-22T14:39:00.229Z,291
2017-06-22T14:39:16.897Z,312
2017-06-22T14:39:32.541Z,336
2017-06-22T14:39:52.984Z,331
2017-06-22T14:40:12.614Z,316
2017-06-22T14:40:31.281Z,304
2017-06-22T14:40:42.288Z,292
2017-06-22T14:40:58.858Z,333
2017-06-22T14:41:15.509Z,315
2017-06-22T14:41:35.106Z,291
2017-06-22T14:41:49.690Z,331
2017-06-22T14:42:03.432Z,330
2017-06-22T14:42:21.114Z,303
2017-06-22T14:42:41.255Z,387
2017-06-22T14:42:57.813Z,312
2017-06-22T14:43:14.484Z,324
2017-06-22T14:43:28.333Z,309
2017-06-22T14:43:45.611Z,324
2017-06-22T14:44:02.185Z,330
2017-06-22T14:44:19.110Z,276
2017-06-22T14:44:34.452Z,313
2017-06-22T14:44:56.891Z,312
2017-06-22T14:45:10.513Z,325
2017-06-22T14:45:27.950Z,332
2017-06-22T14:45:38.777Z,319
2017-06-22T14:45:56.423Z,379
2017-06-22T14:46:10.320Z,341
2017-06-22T14:46:27.065Z,300
2017-06-22T14:46:49.636Z,325
2017-06-22T14:47:06.452Z,320
2017-06-22T14:47:20.177Z,329
2017-06-22T14:47:39.652Z,327
2017-06-22T14:47:53.500Z,333
2017-06-22T14:48:10.150Z,346
2017-06-22T14:48:32.655Z,310
2017-06-22T14:48:53.385Z,314
2017-06-22T14:49:07.211Z,308
2017-06-22T14:49:29.649Z,323
2017-06-22T14:49:46.076Z,327
2017-06-22T14:50:05.446Z,319
2017-06-22T14:50:23.173Z,341
2017-06-22T14:50:40.311Z,302
2017-06-22T14:51:00.097Z,592
2017-06-22T14:51:22.746Z,337
2017-06-22T14:51:42.303Z,317
2017-06-22T14:51:56.725Z,329
2017-06-22T14:52:13.595Z,334
2017-06-22T14:52:27.493Z,299
2017-06-22T14:52:44.616Z,340
2017-06-22T14:52:55.577Z,321
2017-06-22T14:53:15.201Z,297
2017-06-22T14:53:34.772Z,330
2017-06-22T14:53:48.733Z,342
2017-06-22T14:54:05.327Z,338
2017-06-22T14:54:22.336Z,322
2017-06-22T14:54:39.033Z,324
2017-06-22T14:54:58.635Z,332
2017-06-22T14:55:15.353Z,327
2017-06-22T14:55:35.117Z,319
2017-06-22T14:55:51.716Z,348
2017-06-22T14:56:05.976Z,308
2017-06-22T14:56:23.486Z,309
2017-06-22T14:56:40.528Z,324
2017-06-22T14:56:54.100Z,333
2017-06-22T14:57:16.566Z,334
2017-06-22T14:57:36.163Z,320
2017-06-22T14:57:52.923Z,354
2017-06-22T14:58:06.885Z,324
2017-06-22T14:58:20.610Z,316
2017-06-22T14:58:37.350Z,328
2017-06-22T14:58:56.853Z,351
2017-06-22T14:59:16.908Z,324
2017-06-22T14:59:33.554Z,333
2017-06-22T14:59:44.542Z,331
2017-06-22T14:59:58.317Z,339
2017-06-22T15:00:09.290Z,355
2017-06-22T15:00:22.956Z,322
2017-06-22T15:00:45.498Z,327
2017-06-22T15:01:02.113Z,321
2017-06-22T15:01:18.749Z,327
2017-06-22T15:01:35.447Z,331
2017-06-22T15:01:49.217Z,311
2017-06-22T15:02:03.002Z,333
2017-06-22T15:02:22.553Z,306
2017-06-22T15:02:39.544Z,319
2017-06-22T15:02:56.369Z,318
2017-06-22T15:03:16.005Z,315
2017-06-22T15:03:33.070Z,319
2017-06-22T15:03:47.863Z,338
2017-06-22T15:03:58.840Z,323
2017-06-22T15:04:21.347Z,308
2017-06-22T15:04:38.396Z,326
2017-06-22T15:04:58.003Z,330
2017-06-22T15:05:20.500Z,300
2017-06-22T15:05:40.053Z,335
2017-06-22T15:05:56.773Z,315
2017-06-22T15:06:16.423Z,342
2017-06-22T15:06:30.154Z,332
2017-06-22T15:06:53.543Z,339
2017-06-22T15:07:07.237Z,358
2017-06-22T15:07:26.848Z,322
2017-06-22T15:07:41.139Z,318
2017-06-22T15:07:55.192Z,312
2017-06-22T15:08:09.428Z,324
2017-06-22T15:08:31.006Z,321
2017-06-22T15:08:44.834Z,336
2017-06-22T15:08:58.415Z,338
2017-06-22T15:09:10.219Z,325
2017-06-22T15:09:30.667Z,321
2017-06-22T15:09:45.054Z,261
2017-06-22T15:09:55.963Z,321
2017-06-22T15:10:14.068Z,321
2017-06-22T15:10:25.046Z,322
2017-06-22T15:10:41.903Z,325
2017-06-22T15:10:58.691Z,331
2017-06-22T15:11:21.278Z,331
2017-06-22T15:11:38.508Z,331
2017-06-22T15:11:55.190Z,347
2017-06-22T15:12:07.718Z,343
2017-06-22T15:12:18.641Z,316
2017-06-22T15:12:35.110Z,307
2017-06-22T15:12:46.016Z,340
2017-06-22T15:13:08.491Z,335
2017-06-22T15:13:19.279Z,328
2017-06-22T15:13:32.824Z,324
2017-06-22T15:13:49.566Z,344
2017-06-22T15:14:04.167Z,339
2017-06-22T15:14:17.982Z,312
2017-06-22T15:14:34.607Z,351
2017-06-22T15:14:48.352Z,268
2017-06-22T15:15:03.189Z,336
2017-06-22T15:15:26.495Z,323
2017-06-22T15:15:37.899Z,347
2017-06-22T15:16:00.372Z,307
2017-06-22T15:16:13.937Z,368
2017-06-22T15:16:25.036Z,328
2017-06-22T15:16:38.894Z,344
2017-06-22T15:16:55.600Z,311
2017-06-22T15:17:12.092Z,338
2017-06-22T15:17:25.883Z,308
2017-06-22T15:17:45.278Z,323
2017-06-22T15:17:59.786Z,312
2017-06-22T15:18:13.605Z,289
2017-06-22T15:18:24.419Z,330
2017-06-22T15:18:41.021Z,290
2017-06-22T15:18:51.957Z,291
2017-06-22T15:19:08.617Z,305
2017-06-22T15:19:28.194Z,349
2017-06-22T15:19:47.741Z,358
2017-06-22T15:20:01.969Z,294
2017-06-22T15:20:15.691Z,348
2017-06-22T15:20:29.261Z,228
2017-06-22T15:20:40.060Z,370
2017-06-22T15:20:50.986Z,318
2017-06-22T15:21:01.870Z,322
2017-06-22T15:21:18.533Z,339
2017-06-22T15:21:38.231Z,312
2017-06-22T15:21:52.979Z,332
2017-06-22T15:22:06.779Z,336
2017-06-22T15:22:20.539Z,333
2017-06-22T15:22:31.469Z,336
2017-06-22T15:22:48.140Z,326
2017-06-22T15:23:04.931Z,333
2017-06-22T15:23:30.552Z,327
2017-06-22T15:23:44.287Z,347
2017-06-22T15:23:58.244Z,322
2017-06-22T15:24:12.160Z,328
2017-06-22T15:24:23.107Z,354
2017-06-22T15:24:40.714Z,338
2017-06-22T15:24:51.601Z,346
2017-06-22T15:25:08.360Z,306
2017-06-22T15:25:22.196Z,346
2017-06-22T15:25:38.919Z,326
2017-06-22T15:25:55.357Z,337
2017-06-22T15:26:09.017Z,341
2017-06-22T15:26:20.857Z,330
2017-06-22T15:26:37.542Z,333
2017-06-22T15:26:51.386Z,363
2017-06-22T15:27:13.708Z,325
2017-06-22T15:27:24.596Z,337
2017-06-22T15:27:38.438Z,342
2017-06-22T15:27:49.314Z,394
2017-06-22T15:28:03.073Z,331
2017-06-22T15:28:22.469Z,312
2017-06-22T15:28:33.262Z,347
2017-06-22T15:28:44.037Z,322
2017-06-22T15:29:00.651Z,337
2017-06-22T15:29:17.338Z,342
2017-06-22T15:29:28.870Z,343
2017-06-22T15:29:39.830Z,322
2017-06-22T15:29:53.590Z,339
2017-06-22T15:30:16.086Z,309
2017-06-22T15:30:26.890Z,327
2017-06-22T15:30:44.108Z,351
2017-06-22T15:30:57.673Z,345
2017-06-22T15:31:17.258Z,348
2017-06-22T15:31:34.821Z,347
2017-06-22T15:31:51.564Z,331
2017-06-22T15:32:05.437Z,340
2017-06-22T15:32:16.465Z,316
2017-06-22T15:32:33.052Z,349
2017-06-22T15:32:46.681Z,332
2017-06-22T15:33:00.564Z,350
2017-06-22T15:33:11.369Z,311
2017-06-22T15:33:25.136Z,292
2017-06-22T15:33:38.801Z,352
2017-06-22T15:33:52.609Z,361
2017-06-22T15:34:12.196Z,349
2017-06-22T15:34:28.788Z,338
2017-06-22T15:34:45.521Z,330
2017-06-22T15:34:56.457Z,367
2017-06-22T15:35:13.040Z,328
2017-06-22T15:35:30.574Z,361
2017-06-22T15:35:47.397Z,329
2017-06-22T15:36:03.986Z,327
2017-06-22T15:36:20.730Z,341
2017-06-22T15:36:31.441Z,311
2017-06-22T15:36:48.006Z,392
2017-06-22T15:37:01.638Z,341
2017-06-22T15:37:21.278Z,352
2017-06-22T15:37:31.974Z,338
2017-06-22T15:37:45.827Z,336
2017-06-22T15:37:59.582Z,334
2017-06-22T15:38:13.347Z,354
2017-06-22T15:38:24.354Z,355
2017-06-22T15:38:35.311Z,328
2017-06-22T15:38:53.068Z,322
2017-06-22T15:39:16.395Z,306
2017-06-22T15:39:27.317Z,393
2017-06-22T15:39:41.441Z,357
2017-06-22T15:39:58.116Z,337
2017-06-22T15:40:14.648Z,338
2017-06-22T15:40:28.430Z,359
2017-06-22T15:40:47.984Z,334
2017-06-22T15:41:07.649Z,334
2017-06-22T15:41:21.182Z,344
2017-06-22T15:41:35.015Z,358
2017-06-22T15:41:45.889Z,362
2017-06-22T15:41:56.911Z,334
2017-06-22T15:42:13.654Z,364
2017-06-22T15:42:30.211Z,334
2017-06-22T15:42:44.086Z,354
2017-06-22T15:42:58.129Z,343
2017-06-22T15:43:17.930Z,341
2017-06-22T15:43:34.825Z,377
2017-06-22T15:43:45.686Z,335
2017-06-22T15:44:03.268Z,332
2017-06-22T15:44:17.108Z,340
2017-06-22T15:44:28.178Z,238
2017-06-22T15:44:42.009Z,402
2017-06-22T15:44:58.736Z,305
2017-06-22T15:45:15.536Z,351
2017-06-22T15:45:32.269Z,339
2017-06-22T15:45:43.283Z,348
2017-06-22T15:45:54.525Z,334
2017-06-22T15:46:08.444Z,346
2017-06-22T15:46:22.293Z,337
2017-06-22T15:46:36.177Z,347
2017-06-22T15:46:47.152Z,343
2017-06-22T15:47:00.724Z,344
2017-06-22T15:47:20.304Z,351
2017-06-22T15:47:37.057Z,343
2017-06-22T15:47:50.897Z,335
2017-06-22T15:48:10.618Z,343
2017-06-22T15:48:24.439Z,342
2017-06-22T15:48:41.137Z,367
2017-06-22T15:48:54.930Z,363
2017-06-22T15:49:08.771Z,333
2017-06-22T15:49:25.460Z,352
2017-06-22T15:49:39.164Z,334
2017-06-22T15:49:55.761Z,344
2017-06-22T15:50:09.317Z,340
2017-06-22T15:50:23.193Z,374
2017-06-22T15:50:39.844Z,366
2017-06-22T15:50:59.283Z,325
2017-06-22T15:51:09.879Z,345
2017-06-22T15:51:20.819Z,359
2017-06-22T15:51:34.608Z,307
2017-06-22T15:51:48.354Z,342
2017-06-22T15:52:05.073Z,354
2017-06-22T15:52:18.955Z,359
2017-06-22T15:52:32.679Z,339
2017-06-22T15:52:46.647Z,380
2017-06-22T15:52:57.690Z,344
2017-06-22T15:53:11.589Z,365
2017-06-22T15:53:22.621Z,359
2017-06-22T15:53:33.680Z,364
2017-06-22T15:53:47.507Z,363
2017-06-22T15:53:58.409Z,312
2017-06-22T15:54:09.403Z,342
2017-06-22T15:54:20.399Z,342
2017-06-22T15:54:31.522Z,335
2017-06-22T15:54:51.264Z,367
2017-06-22T15:55:05.214Z,327
2017-06-22T15:55:21.799Z,323
2017-06-22T15:55:32.687Z,354
2017-06-22T15:55:46.622Z,365
2017-06-22T15:56:03.606Z,353
2017-06-22T15:56:14.949Z,364